createdAt,value
2019-05-03T00:00:33.792Z,74
2019-05-03T00:01:22.346Z,73
2019-05-03T00:01:57.857Z,74
2019-05-03T00:02:33.829Z,72
2019-05-03T00:03:09.800Z,72
2019-05-03T00:03:45.771Z,71
2019-05-03T00:04:22.903Z,71
2019-05-03T00:04:57.812Z,71
2019-05-03T00:05:33.850Z,71
2019-05-03T00:06:09.781Z,71
2019-05-03T00:06:45.844Z,71
2019-05-03T00:07:22.907Z,71
2019-05-03T00:07:57.792Z,71
2019-05-03T00:08:33.912Z,71
2019-05-03T00:09:11.508Z,71
2019-05-03T00:09:45.819Z,70
2019-05-03T00:10:22.915Z,71
2019-05-03T00:11:22.659Z,70
2019-05-03T00:11:57.794Z,70
2019-05-03T00:12:33.746Z,70
2019-05-03T00:13:45.800Z,71
2019-05-03T00:14:22.348Z,71
2019-05-03T00:14:57.749Z,70
2019-05-03T00:15:33.848Z,71
2019-05-03T00:16:09.805Z,70
2019-05-03T00:16:45.851Z,70
2019-05-03T00:17:22.453Z,70
2019-05-03T00:17:57.855Z,70
2019-05-03T00:18:33.798Z,69
2019-05-03T00:19:09.765Z,69
2019-05-03T00:19:45.742Z,68
2019-05-03T00:20:22.496Z,68
2019-05-03T00:20:57.810Z,69
2019-05-03T00:21:33.801Z,69
2019-05-03T00:22:22.293Z,70
2019-05-03T00:22:57.736Z,70
2019-05-03T00:23:33.827Z,70
2019-05-03T00:24:11.787Z,70
2019-05-03T00:24:45.751Z,70
2019-05-03T00:25:22.745Z,70
2019-05-03T00:25:57.824Z,70
2019-05-03T00:26:33.819Z,70
2019-05-03T00:27:09.760Z,70
2019-05-03T00:27:57.789Z,70
2019-05-03T00:28:45.758Z,71
2019-05-03T00:29:33.776Z,71
2019-05-03T00:30:09.731Z,71
2019-05-03T00:30:45.833Z,71
2019-05-03T00:31:23.210Z,71
2019-05-03T00:32:22.291Z,71
2019-05-03T00:33:12.015Z,71
2019-05-03T00:33:45.778Z,71
2019-05-03T00:34:22.409Z,71
2019-05-03T00:34:57.832Z,71
2019-05-03T00:35:33.835Z,72
2019-05-03T00:36:11.907Z,72
2019-05-03T00:36:45.789Z,72
2019-05-03T00:37:22.710Z,72
2019-05-03T00:37:57.815Z,72
2019-05-03T00:38:33.809Z,72
2019-05-03T00:39:22.250Z,72
2019-05-03T00:39:57.761Z,72
2019-05-03T00:40:33.836Z,71
2019-05-03T00:41:09.825Z,71
2019-05-03T00:41:45.781Z,71
2019-05-03T00:42:23.056Z,71
2019-05-03T00:42:57.850Z,71
2019-05-03T00:43:33.871Z,71
2019-05-03T00:44:11.797Z,70
2019-05-03T00:44:45.762Z,70
2019-05-03T00:45:22.653Z,70
2019-05-03T00:45:57.798Z,70
2019-05-03T00:46:33.783Z,71
2019-05-03T00:47:09.742Z,71
2019-05-03T00:47:45.836Z,71
2019-05-03T00:48:22.575Z,71
2019-05-03T00:48:57.790Z,71
2019-05-03T00:49:33.726Z,70
2019-05-03T00:50:11.904Z,71
2019-05-03T00:50:45.796Z,71
2019-05-03T00:51:23.149Z,71
2019-05-03T00:51:57.747Z,71
2019-05-03T00:52:33.812Z,71
2019-05-03T00:53:11.940Z,71
2019-05-03T00:53:45.758Z,70
2019-05-03T00:54:22.870Z,70
2019-05-03T00:54:57.820Z,70
2019-05-03T00:55:33.775Z,70
2019-05-03T00:56:09.770Z,70
2019-05-03T00:56:45.727Z,70
2019-05-03T00:57:23.331Z,70
2019-05-03T00:57:57.798Z,71
2019-05-03T00:58:45.789Z,71
2019-05-03T00:59:22.784Z,71
2019-05-03T00:59:57.738Z,71
2019-05-03T01:00:33.817Z,71
2019-05-03T01:01:11.580Z,71
2019-05-03T01:01:45.744Z,71
2019-05-03T01:02:22.923Z,71
2019-05-03T01:02:57.817Z,71
2019-05-03T01:03:33.796Z,71
2019-05-03T01:04:11.695Z,71
2019-05-03T01:05:23.255Z,71
2019-05-03T01:05:57.776Z,71
2019-05-03T01:06:33.764Z,71
2019-05-03T01:07:11.943Z,71
2019-05-03T01:07:45.806Z,71
2019-05-03T01:08:22.660Z,71
2019-05-03T01:08:57.741Z,71
2019-05-03T01:09:33.838Z,70
2019-05-03T01:10:11.709Z,70
2019-05-03T01:10:45.803Z,70
2019-05-03T01:11:22.828Z,70
2019-05-03T01:11:57.829Z,70
2019-05-03T01:12:33.782Z,70
2019-05-03T01:13:09.750Z,70
2019-05-03T01:13:45.722Z,69
2019-05-03T01:14:23.179Z,69
2019-05-03T01:14:57.788Z,69
2019-05-03T01:15:33.750Z,70
2019-05-03T01:16:12.053Z,70
2019-05-03T01:16:45.814Z,70
2019-05-03T01:17:22.995Z,70
2019-05-03T01:18:09.785Z,70
2019-05-03T01:18:45.746Z,70
2019-05-03T01:19:23.288Z,70
2019-05-03T01:19:57.816Z,70
2019-05-03T01:20:33.790Z,70
2019-05-03T01:21:23.212Z,70
2019-05-03T01:22:11.800Z,71
2019-05-03T01:22:45.758Z,70
2019-05-03T01:23:33.751Z,71
2019-05-03T01:24:09.714Z,71
2019-05-03T01:24:45.800Z,71
2019-05-03T01:25:35.688Z,70
2019-05-03T01:25:57.753Z,70
2019-05-03T01:26:33.724Z,70
2019-05-03T01:27:33.735Z,69
2019-05-03T01:28:09.705Z,69
2019-05-03T01:28:45.795Z,69
2019-05-03T01:29:23.371Z,69
2019-05-03T01:29:57.746Z,69
2019-05-03T01:30:33.706Z,69
2019-05-03T01:31:11.859Z,69
2019-05-03T01:31:45.788Z,69
2019-05-03T01:32:22.889Z,69
2019-05-03T01:32:57.702Z,69
2019-05-03T01:33:45.700Z,69
2019-05-03T01:34:22.503Z,69
2019-05-03T01:34:57.766Z,69
2019-05-03T01:35:33.734Z,69
2019-05-03T01:36:09.691Z,69
2019-05-03T01:36:45.843Z,69
2019-05-03T01:37:23.241Z,69
2019-05-03T01:37:57.756Z,69
2019-05-03T01:38:33.718Z,69
2019-05-03T01:39:09.792Z,70
2019-05-03T01:39:45.781Z,70
2019-05-03T01:40:22.613Z,70
2019-05-03T01:40:57.815Z,70
2019-05-03T01:41:33.781Z,70
2019-05-03T01:42:11.811Z,70
2019-05-03T01:42:45.749Z,70
2019-05-03T01:43:22.810Z,70
2019-05-03T01:43:57.786Z,70
2019-05-03T01:44:33.747Z,70
2019-05-03T01:45:09.714Z,70
2019-05-03T01:45:45.799Z,71
2019-05-03T01:46:23.417Z,71
2019-05-03T01:46:57.745Z,71
2019-05-03T01:47:33.779Z,71
2019-05-03T01:48:09.800Z,71
2019-05-03T01:48:45.784Z,71
2019-05-03T01:49:23.427Z,71
2019-05-03T01:49:57.715Z,71
2019-05-03T01:50:33.806Z,71
2019-05-03T01:51:11.692Z,71
2019-05-03T01:51:45.764Z,71
2019-05-03T01:52:22.483Z,71
2019-05-03T01:52:57.820Z,71
2019-05-03T01:53:33.771Z,71
2019-05-03T01:54:09.741Z,72
2019-05-03T01:54:45.723Z,72
2019-05-03T01:55:23.184Z,72
2019-05-03T01:55:57.784Z,72
2019-05-03T01:56:33.739Z,72
2019-05-03T01:57:11.819Z,72
2019-05-03T01:57:45.797Z,72
2019-05-03T01:58:22.255Z,72
2019-05-03T01:58:57.733Z,72
2019-05-03T01:59:33.709Z,72
2019-05-03T02:00:11.958Z,72
2019-05-03T02:00:45.754Z,72
2019-05-03T02:01:22.665Z,72
2019-05-03T02:01:57.703Z,72
2019-05-03T02:02:45.696Z,72
2019-05-03T02:03:45.786Z,72
2019-05-03T02:04:22.129Z,72
2019-05-03T02:04:57.807Z,71
2019-05-03T02:05:33.765Z,72
2019-05-03T02:06:11.461Z,71
2019-05-03T02:06:45.697Z,71
2019-05-03T02:07:22.927Z,71
2019-05-03T02:08:09.778Z,70
2019-05-03T02:08:45.824Z,70
2019-05-03T02:09:22.211Z,70
2019-05-03T02:09:57.691Z,70
2019-05-03T02:10:33.789Z,70
2019-05-03T02:11:11.883Z,69
2019-05-03T02:11:45.730Z,68
2019-05-03T02:12:22.740Z,68
2019-05-03T02:12:57.775Z,68
2019-05-03T02:13:33.754Z,68
2019-05-03T02:14:09.760Z,68
2019-05-03T02:14:45.805Z,67
2019-05-03T02:15:22.687Z,68
2019-05-03T02:15:57.732Z,67
2019-05-03T02:16:33.717Z,67
2019-05-03T02:17:09.799Z,66
2019-05-03T02:17:45.784Z,65
2019-05-03T02:18:33.782Z,65
2019-05-03T02:19:09.802Z,65
2019-05-03T02:19:45.705Z,65
2019-05-03T02:20:22.487Z,65
2019-05-03T02:21:09.805Z,64
2019-05-03T02:21:45.769Z,63
2019-05-03T02:22:23.142Z,63
2019-05-03T02:22:57.716Z,63
2019-05-03T02:23:33.810Z,62
2019-05-03T02:24:12.016Z,61
2019-05-03T02:24:45.728Z,61
2019-05-03T02:25:22.355Z,60
2019-05-03T02:25:59.827Z,60
2019-05-03T02:26:33.767Z,58
2019-05-03T02:27:09.725Z,59
2019-05-03T02:27:45.719Z,59
2019-05-03T02:28:22.664Z,58
2019-05-03T02:28:57.756Z,59
2019-05-03T02:29:33.742Z,59
2019-05-03T02:30:09.708Z,59
2019-05-03T02:30:45.805Z,59
2019-05-03T02:31:23.793Z,59
2019-05-03T02:31:57.737Z,59
2019-05-03T02:32:33.891Z,59
2019-05-03T02:33:24.110Z,57
2019-05-03T02:33:57.806Z,58
2019-05-03T02:34:33.834Z,58
2019-05-03T02:35:09.752Z,58
2019-05-03T02:35:57.724Z,58
2019-05-03T02:36:45.733Z,58
2019-05-03T02:37:33.772Z,58
2019-05-03T02:38:12.349Z,58
2019-05-03T02:38:45.778Z,58
2019-05-03T02:39:23.495Z,58
2019-05-03T02:40:12.225Z,59
2019-05-03T02:40:45.738Z,59
2019-05-03T02:41:23.385Z,59
2019-05-03T02:42:11.930Z,59
2019-05-03T02:42:36.190Z,59
2019-05-03T02:43:09.728Z,59
2019-05-03T02:43:46.034Z,60
2019-05-03T02:44:21.778Z,60
2019-05-03T02:44:57.763Z,60
2019-05-03T02:45:35.745Z,60
2019-05-03T02:46:09.798Z,60
2019-05-03T02:46:57.797Z,60
2019-05-03T02:47:36.329Z,60
2019-05-03T02:48:09.734Z,60
2019-05-03T02:48:46.406Z,60
2019-05-03T02:49:35.934Z,60
2019-05-03T02:50:09.795Z,60
2019-05-03T02:50:45.904Z,61
2019-05-03T02:51:21.735Z,61
2019-05-03T02:51:57.721Z,61
2019-05-03T02:52:57.806Z,61
2019-05-03T02:53:36.538Z,62
2019-05-03T02:54:09.818Z,62
2019-05-03T02:54:47.091Z,62
2019-05-03T02:55:21.754Z,62
2019-05-03T02:56:23.285Z,62
2019-05-03T02:57:09.756Z,63
2019-05-03T02:57:47.369Z,63
2019-05-03T02:58:21.701Z,63
2019-05-03T02:58:57.788Z,63
2019-05-03T02:59:35.267Z,63
2019-05-03T03:00:09.774Z,63
2019-05-03T03:00:46.060Z,63
2019-05-03T03:01:36.338Z,63
2019-05-03T03:02:09.796Z,63
2019-05-03T03:02:57.792Z,62
2019-05-03T03:03:46.390Z,62
2019-05-03T03:04:21.773Z,62
2019-05-03T03:04:57.726Z,62
2019-05-03T03:05:35.853Z,62
2019-05-03T03:06:09.780Z,62
2019-05-03T03:06:46.086Z,61
2019-05-03T03:07:21.711Z,62
2019-05-03T03:07:57.706Z,62
2019-05-03T03:08:37.450Z,62
2019-05-03T03:09:09.769Z,63
2019-05-03T03:09:45.898Z,63
2019-05-03T03:10:46.266Z,63
2019-05-03T03:11:21.722Z,63
2019-05-03T03:12:21.760Z,62
2019-05-03T03:12:57.728Z,62
2019-05-03T03:13:37.151Z,62
2019-05-03T03:14:09.777Z,63
2019-05-03T03:14:46.109Z,63
2019-05-03T03:15:36.699Z,63
2019-05-03T03:16:09.742Z,63
2019-05-03T03:16:57.705Z,63
2019-05-03T03:17:46.365Z,64
2019-05-03T03:18:37.047Z,63
2019-05-03T03:19:09.791Z,63
2019-05-03T03:19:46.782Z,63
2019-05-03T03:20:21.735Z,63
2019-05-03T03:20:57.708Z,63
2019-05-03T03:21:36.651Z,64
2019-05-03T03:22:09.770Z,64
2019-05-03T03:22:46.342Z,64
2019-05-03T03:23:21.720Z,63
2019-05-03T03:23:57.795Z,63
2019-05-03T03:24:36.657Z,63
2019-05-03T03:25:09.733Z,63
2019-05-03T03:25:46.832Z,64
2019-05-03T03:26:44.316Z,63
2019-05-03T03:27:36.513Z,64
2019-05-03T03:28:09.761Z,64
2019-05-03T03:29:09.729Z,64
2019-05-03T03:29:46.500Z,64
2019-05-03T03:30:21.812Z,64
2019-05-03T03:30:58.278Z,64
2019-05-03T03:31:38.612Z,64
2019-05-03T03:32:39.419Z,64
2019-05-03T03:33:10.142Z,64
2019-05-03T03:33:48.202Z,64
2019-05-03T03:34:21.779Z,64
2019-05-03T03:35:12.909Z,64
2019-05-03T03:35:39.118Z,64
2019-05-03T03:37:03.643Z,64
2019-05-03T03:37:06.103Z,64
2019-05-03T03:38:09.848Z,64
2019-05-03T03:38:46.456Z,65
2019-05-03T03:39:21.686Z,64
2019-05-03T03:39:57.777Z,64
2019-05-03T03:40:36.314Z,64
2019-05-03T03:41:09.716Z,64
2019-05-03T03:41:45.905Z,64
2019-05-03T03:42:36.511Z,64
2019-05-03T03:43:09.779Z,65
2019-05-03T03:44:09.726Z,65
2019-05-03T03:44:46.051Z,65
2019-05-03T03:45:21.736Z,65
2019-05-03T03:45:57.696Z,65
2019-05-03T03:46:36.302Z,65
2019-05-03T03:47:09.779Z,65
2019-05-03T03:47:47.099Z,65
2019-05-03T03:48:21.715Z,65
2019-05-03T03:48:57.786Z,65
2019-05-03T03:49:36.215Z,65
2019-05-03T03:50:09.773Z,65
2019-05-03T03:50:46.357Z,65
2019-05-03T03:51:35.704Z,66
2019-05-03T03:52:36.467Z,66
2019-05-03T03:53:09.701Z,66
2019-05-03T03:53:47.138Z,66
2019-05-03T03:54:21.751Z,66
2019-05-03T03:54:57.725Z,66
2019-05-03T03:55:35.695Z,66
2019-05-03T03:56:09.790Z,66
2019-05-03T03:57:07.810Z,66
2019-05-03T03:57:36.243Z,66
2019-05-03T03:58:09.719Z,66
2019-05-03T03:59:57.822Z,67
2019-05-03T04:00:57.790Z,66
2019-05-03T04:01:35.621Z,66
2019-05-03T04:02:21.731Z,66
2019-05-03T04:02:57.715Z,66
2019-05-03T04:03:36.664Z,66
2019-05-03T04:04:09.777Z,66
2019-05-03T04:04:45.788Z,67
2019-05-03T04:05:21.745Z,67
2019-05-03T04:06:09.714Z,66
2019-05-03T04:07:02.043Z,66
2019-05-03T04:07:36.685Z,66
2019-05-03T04:08:09.781Z,66
2019-05-03T04:09:37.139Z,67
2019-05-03T04:10:09.767Z,67
2019-05-03T04:11:09.761Z,67
2019-05-03T04:11:57.770Z,67
2019-05-03T04:12:35.790Z,67
2019-05-03T04:13:21.715Z,67
2019-05-03T04:13:57.667Z,67
2019-05-03T04:14:36.711Z,67
2019-05-03T04:15:21.779Z,67
2019-05-03T04:15:57.724Z,67
2019-05-03T04:16:57.756Z,67
2019-05-03T04:17:36.533Z,67
2019-05-03T04:18:09.719Z,67
2019-05-03T04:18:46.164Z,67
2019-05-03T04:19:21.773Z,67
2019-05-03T04:20:09.762Z,67
2019-05-03T04:20:57.786Z,67
2019-05-03T04:21:36.433Z,67
2019-05-03T04:22:09.723Z,67
2019-05-03T04:22:45.985Z,67
2019-05-03T04:23:36.478Z,67
2019-05-03T04:24:09.752Z,67
2019-05-03T04:24:46.560Z,67
2019-05-03T04:25:21.765Z,67
2019-05-03T04:25:57.799Z,67
2019-05-03T04:27:24.087Z,67
2019-05-03T04:27:36.930Z,67
2019-05-03T04:28:09.773Z,67
2019-05-03T04:28:46.034Z,67
2019-05-03T04:29:21.697Z,67
2019-05-03T04:29:57.813Z,67
2019-05-03T04:30:37.080Z,67
2019-05-03T04:31:09.739Z,67
2019-05-03T04:31:57.734Z,67
2019-05-03T04:32:36.537Z,67
2019-05-03T04:33:09.792Z,67
2019-05-03T04:33:45.781Z,68
2019-05-03T04:34:21.719Z,67
2019-05-03T04:34:57.687Z,67
2019-05-03T04:35:37.091Z,67
2019-05-03T04:36:09.729Z,67
2019-05-03T04:36:46.846Z,67
2019-05-03T04:37:21.695Z,67
2019-05-03T04:37:57.764Z,67
2019-05-03T04:38:36.080Z,67
2019-05-03T04:39:09.723Z,67
2019-05-03T04:39:46.402Z,67
2019-05-03T04:40:21.773Z,67
2019-05-03T04:40:57.749Z,66
2019-05-03T04:41:36.275Z,66
2019-05-03T04:42:09.660Z,66
2019-05-03T04:42:47.086Z,67
2019-05-03T04:43:21.730Z,67
2019-05-03T04:43:57.718Z,67
2019-05-03T04:44:36.547Z,67
2019-05-03T04:45:09.763Z,67
2019-05-03T04:45:46.272Z,67
2019-05-03T04:46:21.708Z,67
2019-05-03T04:46:59.081Z,67
2019-05-03T04:47:36.291Z,67
2019-05-03T04:48:09.755Z,67
2019-05-03T04:48:45.721Z,67
2019-05-03T04:49:21.778Z,67
2019-05-03T04:49:57.755Z,67
2019-05-03T04:50:37.476Z,66
2019-05-03T04:51:09.712Z,67
2019-05-03T04:51:47.191Z,67
2019-05-03T04:52:21.767Z,67
2019-05-03T04:52:57.720Z,67
2019-05-03T04:53:46.096Z,67
2019-05-03T04:54:21.694Z,67
2019-05-03T04:54:57.816Z,68
2019-05-03T04:55:47.555Z,67
2019-05-03T04:56:21.794Z,67
2019-05-03T04:56:57.730Z,67
2019-05-03T04:57:50.495Z,67
2019-05-03T04:58:46.529Z,67
2019-05-03T04:59:21.729Z,68
2019-05-03T04:59:57.693Z,67
2019-05-03T05:00:36.522Z,67
2019-05-03T05:01:09.744Z,67
2019-05-03T05:01:46.672Z,67
2019-05-03T05:02:21.739Z,67
2019-05-03T05:02:57.805Z,67
2019-05-03T05:03:36.770Z,67
2019-05-03T05:04:09.700Z,67
2019-05-03T05:04:46.995Z,67
2019-05-03T05:05:21.759Z,67
2019-05-03T05:06:00.261Z,67
2019-05-03T05:06:35.668Z,67
2019-05-03T05:07:09.679Z,67
2019-05-03T05:07:46.483Z,67
2019-05-03T05:08:21.765Z,67
2019-05-03T05:08:57.716Z,66
2019-05-03T05:09:46.320Z,66
2019-05-03T05:10:21.661Z,66
2019-05-03T05:11:11.127Z,66
2019-05-03T05:11:46.535Z,66
2019-05-03T05:12:21.717Z,66
2019-05-03T05:13:09.722Z,65
2019-05-03T05:13:46.353Z,65
2019-05-03T05:14:21.782Z,65
2019-05-03T05:15:09.776Z,66
2019-05-03T05:15:46.647Z,65
2019-05-03T05:16:21.717Z,65
2019-05-03T05:16:57.768Z,65
2019-05-03T05:17:36.118Z,66
2019-05-03T05:18:09.787Z,65
2019-05-03T05:19:09.760Z,66
2019-05-03T05:19:45.766Z,66
2019-05-03T05:20:21.717Z,66
2019-05-03T05:20:57.669Z,66
2019-05-03T05:21:36.028Z,66
2019-05-03T05:22:09.767Z,65
2019-05-03T05:22:46.015Z,65
2019-05-03T05:23:21.697Z,65
2019-05-03T05:23:57.764Z,64
2019-05-03T05:24:35.186Z,64
2019-05-03T05:25:09.701Z,64
2019-05-03T05:25:45.669Z,64
2019-05-03T05:26:35.739Z,64
2019-05-03T05:27:09.767Z,64
2019-05-03T05:27:57.782Z,64
2019-05-03T05:28:35.954Z,64
2019-05-03T05:29:09.721Z,64
2019-05-03T05:29:57.689Z,64
2019-05-03T05:30:35.812Z,63
2019-05-03T05:31:09.755Z,63
2019-05-03T05:31:45.731Z,63
2019-05-03T05:32:21.707Z,63
2019-05-03T05:32:57.668Z,62
2019-05-03T05:33:35.870Z,62
2019-05-03T05:34:09.725Z,62
2019-05-03T05:34:46.638Z,61
2019-05-03T05:35:21.661Z,62
2019-05-03T05:35:57.744Z,62
2019-05-03T05:36:35.326Z,62
2019-05-03T05:37:09.683Z,62
2019-05-03T05:37:57.692Z,62
2019-05-03T05:38:35.268Z,62
2019-05-03T05:39:09.768Z,62
2019-05-03T05:39:45.753Z,63
2019-05-03T05:40:21.678Z,62
2019-05-03T05:41:09.682Z,62
2019-05-03T05:41:45.650Z,62
2019-05-03T05:42:21.747Z,62
2019-05-03T05:42:57.729Z,63
2019-05-03T05:43:35.902Z,63
2019-05-03T05:44:09.662Z,64
2019-05-03T05:44:46.035Z,64
2019-05-03T05:45:21.699Z,64
2019-05-03T05:45:59.467Z,65
2019-05-03T05:46:35.612Z,65
2019-05-03T05:47:09.730Z,65
2019-05-03T05:47:45.710Z,66
2019-05-03T05:48:21.682Z,65
2019-05-03T05:48:57.762Z,65
2019-05-03T05:49:35.647Z,65
2019-05-03T05:50:09.701Z,66
2019-05-03T05:50:45.682Z,66
2019-05-03T05:51:21.757Z,65
2019-05-03T05:51:57.731Z,66
2019-05-03T05:52:35.197Z,65
2019-05-03T05:53:09.679Z,66
2019-05-03T05:53:45.748Z,65
2019-05-03T05:54:21.725Z,65
2019-05-03T05:54:57.717Z,65
2019-05-03T05:55:35.034Z,66
2019-05-03T05:56:09.751Z,66
2019-05-03T05:56:45.729Z,66
2019-05-03T05:57:21.700Z,66
2019-05-03T05:58:08.499Z,66
2019-05-03T05:58:35.422Z,66
2019-05-03T05:59:09.733Z,66
2019-05-03T05:59:45.943Z,66
2019-05-03T06:00:21.669Z,67
2019-05-03T06:00:57.742Z,67
2019-05-03T06:01:35.839Z,67
2019-05-03T06:02:09.694Z,67
2019-05-03T06:02:45.668Z,66
2019-05-03T06:03:21.767Z,66
2019-05-03T06:03:57.719Z,66
2019-05-03T06:04:35.452Z,65
2019-05-03T06:05:09.655Z,65
2019-05-03T06:05:45.742Z,65
2019-05-03T06:06:21.713Z,65
2019-05-03T06:06:57.687Z,65
2019-05-03T06:07:35.622Z,65
2019-05-03T06:08:09.735Z,64
2019-05-03T06:08:57.768Z,64
2019-05-03T06:09:57.673Z,63
2019-05-03T06:10:35.415Z,63
2019-05-03T06:11:09.700Z,63
2019-05-03T06:11:45.687Z,63
2019-05-03T06:12:21.642Z,62
2019-05-03T06:13:09.646Z,62
2019-05-03T06:13:57.725Z,62
2019-05-03T06:14:35.268Z,62
2019-05-03T06:15:26.753Z,62
2019-05-03T06:15:57.702Z,62
2019-05-03T06:16:35.433Z,61
2019-05-03T06:17:09.654Z,62
2019-05-03T06:17:57.639Z,62
2019-05-03T06:18:35.833Z,61
2019-05-03T06:19:21.746Z,61
2019-05-03T06:19:57.695Z,61
2019-05-03T06:20:35.426Z,60
2019-05-03T06:21:09.632Z,59
2019-05-03T06:21:48.404Z,60
2019-05-03T06:22:21.721Z,60
2019-05-03T06:22:57.674Z,60
2019-05-03T06:23:35.331Z,59
2019-05-03T06:24:09.715Z,59
2019-05-03T06:24:45.805Z,60
2019-05-03T06:25:21.695Z,60
2019-05-03T06:25:57.781Z,60
2019-05-03T06:26:35.271Z,60
2019-05-03T06:27:09.676Z,60
2019-05-03T06:27:45.671Z,59
2019-05-03T06:28:21.869Z,58
2019-05-03T06:28:57.730Z,58
2019-05-03T06:29:35.667Z,58
2019-05-03T06:30:09.672Z,58
2019-05-03T06:30:47.387Z,59
2019-05-03T06:31:25.460Z,59
2019-05-03T06:31:57.679Z,58
2019-05-03T06:32:35.143Z,58
2019-05-03T06:33:09.734Z,58
2019-05-03T06:33:45.731Z,57
2019-05-03T06:34:21.680Z,58
2019-05-03T06:35:09.689Z,58
2019-05-03T06:35:45.649Z,58
2019-05-03T06:36:21.739Z,58
2019-05-03T06:36:57.714Z,58
2019-05-03T06:37:35.796Z,58
2019-05-03T06:38:09.652Z,57
2019-05-03T06:38:45.760Z,57
2019-05-03T06:39:21.713Z,57
2019-05-03T06:40:09.715Z,57
2019-05-03T06:40:45.727Z,56
2019-05-03T06:41:21.636Z,56
2019-05-03T06:41:57.726Z,56
2019-05-03T06:43:08.938Z,56
2019-05-03T06:43:21.695Z,55
2019-05-03T06:43:57.676Z,55
2019-05-03T06:44:35.470Z,56
2019-05-03T06:45:12.284Z,56
2019-05-03T06:45:57.729Z,57
2019-05-03T06:46:36.092Z,57
2019-05-03T06:47:11.021Z,56
2019-05-03T06:47:57.673Z,56
2019-05-03T06:48:35.694Z,57
2019-05-03T06:49:21.632Z,56
2019-05-03T06:49:57.738Z,56
2019-05-03T06:50:35.386Z,56
2019-05-03T06:51:20.097Z,55
2019-05-03T06:51:57.664Z,55
2019-05-03T06:52:35.622Z,56
2019-05-03T06:53:15.727Z,55
2019-05-03T06:53:50.935Z,56
2019-05-03T06:54:30.393Z,58
2019-05-03T06:55:10.658Z,57
2019-05-03T06:56:09.706Z,57
2019-05-03T06:56:45.931Z,57
2019-05-03T06:57:39.984Z,57
2019-05-03T06:58:09.620Z,58
2019-05-03T06:58:45.714Z,58
2019-05-03T06:59:21.671Z,58
2019-05-03T06:59:57.686Z,57
2019-05-03T07:00:35.662Z,57
2019-05-03T07:01:11.888Z,57
2019-05-03T07:01:45.679Z,57
2019-05-03T07:02:21.664Z,56
2019-05-03T07:02:57.633Z,55
2019-05-03T07:03:35.922Z,55
2019-05-03T07:04:09.699Z,55
2019-05-03T07:04:45.645Z,55
2019-05-03T07:05:21.744Z,55
2019-05-03T07:06:40.847Z,55
2019-05-03T07:06:57.743Z,55
2019-05-03T07:07:35.919Z,56
2019-05-03T07:08:09.665Z,56
2019-05-03T07:08:57.690Z,56
2019-05-03T07:09:35.653Z,55
2019-05-03T07:10:09.734Z,55
2019-05-03T07:10:45.804Z,54
2019-05-03T07:11:21.670Z,54
2019-05-03T07:11:57.651Z,54
2019-05-03T07:12:46.009Z,54
2019-05-03T07:13:21.722Z,54
2019-05-03T07:13:57.702Z,53
2019-05-03T07:14:57.715Z,53
2019-05-03T07:15:35.619Z,52
2019-05-03T07:16:09.669Z,51
2019-05-03T07:16:45.645Z,51
2019-05-03T07:17:45.670Z,53
2019-05-03T07:18:35.764Z,52
2019-05-03T07:19:09.641Z,52
2019-05-03T07:19:46.459Z,53
2019-05-03T07:20:21.699Z,51
2019-05-03T07:20:57.801Z,52
2019-05-03T07:21:35.914Z,52
2019-05-03T07:22:09.710Z,52
2019-05-03T07:22:45.697Z,52
2019-05-03T07:23:35.577Z,53
2019-05-03T07:24:21.681Z,51
2019-05-03T07:24:57.646Z,52
2019-05-03T07:25:35.007Z,51
2019-05-03T07:26:21.609Z,52
2019-05-03T07:27:09.611Z,52
2019-05-03T07:27:45.831Z,52
2019-05-03T07:28:21.668Z,52
2019-05-03T07:28:57.640Z,52
2019-05-03T07:29:45.651Z,52
2019-05-03T07:30:21.620Z,52
2019-05-03T07:30:57.734Z,52
2019-05-03T07:31:35.890Z,52
2019-05-03T07:32:21.684Z,54
2019-05-03T07:32:57.639Z,54
2019-05-03T07:33:45.626Z,54
2019-05-03T07:34:21.610Z,54
2019-05-03T07:34:57.703Z,55
2019-05-03T07:35:35.846Z,55
2019-05-03T07:36:36.043Z,54
2019-05-03T07:37:09.658Z,54
2019-05-03T07:37:45.668Z,54
2019-05-03T07:38:21.597Z,54
2019-05-03T07:38:57.684Z,54
2019-05-03T07:39:35.516Z,53
2019-05-03T07:40:09.632Z,53
2019-05-03T07:40:45.622Z,53
2019-05-03T07:41:27.109Z,54
2019-05-03T07:41:57.670Z,54
2019-05-03T07:42:35.278Z,54
2019-05-03T07:43:09.601Z,53
2019-05-03T07:43:57.596Z,53
2019-05-03T07:44:45.629Z,53
2019-05-03T07:45:21.679Z,53
2019-05-03T07:45:57.680Z,53
2019-05-03T07:46:35.491Z,53
2019-05-03T07:47:09.596Z,53
2019-05-03T07:47:45.788Z,52
2019-05-03T07:48:35.824Z,52
2019-05-03T07:49:09.644Z,52
2019-05-03T07:49:45.615Z,53
2019-05-03T07:50:21.587Z,52
2019-05-03T07:50:57.705Z,51
2019-05-03T07:51:35.363Z,51
2019-05-03T07:52:12.332Z,50
2019-05-03T07:53:21.674Z,51
2019-05-03T07:53:57.652Z,51
2019-05-03T07:54:35.459Z,50
2019-05-03T07:55:09.707Z,50
2019-05-03T07:56:09.629Z,50
2019-05-03T07:56:57.612Z,50
2019-05-03T07:57:36.114Z,49
2019-05-03T07:58:21.713Z,49
2019-05-03T07:59:06.572Z,50
2019-05-03T07:59:46.081Z,49
2019-05-03T08:00:34.898Z,49
2019-05-03T08:01:10.619Z,50
2019-05-03T08:01:46.197Z,49
2019-05-03T08:02:27.746Z,49
2019-05-03T08:02:57.676Z,50
2019-05-03T08:03:45.754Z,49
2019-05-03T08:04:21.623Z,49
2019-05-03T08:04:57.623Z,48
2019-05-03T08:05:35.534Z,48
2019-05-03T08:06:21.720Z,49
2019-05-03T08:06:57.657Z,48
2019-05-03T08:08:09.589Z,48
2019-05-03T08:08:46.054Z,48
2019-05-03T08:09:21.676Z,46
2019-05-03T08:09:57.632Z,47
2019-05-03T08:10:35.102Z,47
2019-05-03T08:11:21.619Z,47
2019-05-03T08:11:57.684Z,46
2019-05-03T08:12:35.458Z,46
2019-05-03T08:13:09.616Z,47
2019-05-03T08:13:45.599Z,46
2019-05-03T08:14:21.684Z,46
2019-05-03T08:14:57.656Z,46
2019-05-03T08:15:35.362Z,46
2019-05-03T08:16:21.631Z,45
2019-05-03T08:16:57.604Z,44
2019-05-03T08:17:35.233Z,44
2019-05-03T08:18:21.672Z,46
2019-05-03T08:18:57.642Z,46
2019-05-03T08:19:45.649Z,48
2019-05-03T08:20:21.630Z,48
2019-05-03T08:21:09.619Z,48
2019-05-03T08:21:45.967Z,49
2019-05-03T08:22:35.048Z,49
2019-05-03T08:23:17.696Z,50
2019-05-03T08:23:57.689Z,50
2019-05-03T08:24:35.199Z,49
2019-05-03T08:25:21.638Z,49
2019-05-03T08:25:57.609Z,51
2019-05-03T08:26:35.602Z,50
2019-05-03T08:27:09.677Z,50
2019-05-03T08:27:45.640Z,49
2019-05-03T08:28:21.594Z,49
2019-05-03T08:28:57.613Z,49
2019-05-03T08:29:35.734Z,49
2019-05-03T08:30:09.678Z,49
2019-05-03T08:30:45.597Z,49
2019-05-03T08:31:26.743Z,49
2019-05-03T08:31:57.693Z,48
2019-05-03T08:32:35.817Z,47
2019-05-03T08:33:21.637Z,48
2019-05-03T08:33:57.614Z,48
2019-05-03T08:34:35.478Z,46
2019-05-03T08:35:09.650Z,46
2019-05-03T08:35:45.628Z,47
2019-05-03T08:36:21.594Z,48
2019-05-03T08:36:57.592Z,48
2019-05-03T08:37:45.856Z,46
2019-05-03T08:38:21.663Z,46
2019-05-03T08:38:57.654Z,47
2019-05-03T08:39:36.225Z,46
2019-05-03T08:40:09.672Z,45
2019-05-03T08:40:46.140Z,45
2019-05-03T08:41:35.691Z,44
2019-05-03T08:42:09.639Z,45
2019-05-03T08:42:45.584Z,44
2019-05-03T08:43:21.667Z,44
2019-05-03T08:43:57.639Z,44
2019-05-03T08:44:35.840Z,44
2019-05-03T08:45:21.604Z,44
2019-05-03T08:45:57.584Z,43
2019-05-03T08:46:36.043Z,44
2019-05-03T08:47:09.649Z,44
2019-05-03T08:47:45.722Z,44
2019-05-03T08:48:21.594Z,45
2019-05-03T08:48:57.663Z,45
2019-05-03T08:49:35.376Z,45
2019-05-03T08:50:09.603Z,45
2019-05-03T08:50:45.731Z,46
2019-05-03T08:51:21.666Z,45
2019-05-03T08:51:57.658Z,47
2019-05-03T08:52:35.391Z,47
2019-05-03T08:53:09.573Z,47
2019-05-03T08:53:46.595Z,47
2019-05-03T08:54:21.654Z,47
2019-05-03T08:54:57.609Z,47
2019-05-03T08:55:35.691Z,47
2019-05-03T08:56:09.655Z,48
2019-05-03T08:56:45.726Z,48
2019-05-03T08:57:35.955Z,47
2019-05-03T08:58:09.596Z,47
2019-05-03T08:58:45.767Z,48
2019-05-03T08:59:35.526Z,47
2019-05-03T09:00:35.811Z,47
2019-05-03T09:01:09.582Z,48
2019-05-03T09:01:45.975Z,48
2019-05-03T09:02:21.640Z,45
2019-05-03T09:02:57.619Z,45
2019-05-03T09:03:38.778Z,45
2019-05-03T09:04:09.649Z,45
2019-05-03T09:04:57.735Z,46
2019-05-03T09:05:36.481Z,45
2019-05-03T09:06:09.580Z,46
2019-05-03T09:06:45.549Z,46
2019-05-03T09:07:21.679Z,46
2019-05-03T09:07:57.733Z,47
2019-05-03T09:08:35.899Z,47
2019-05-03T09:09:09.553Z,48
2019-05-03T09:09:46.690Z,48
2019-05-03T09:10:21.615Z,48
2019-05-03T09:10:57.585Z,49